Time;durP1;ratioP1;P1;durP2;ratioP2;P2;SDS_P1;SDS_P2;PMS_P1;PMS_P2;Temp;Humidity;BMP_temperature;BMP_pressure;BME280_temperature;BME280_humidity;BME280_pressure;Samples;Min_cycle;Max_cycle;Signal;HPM_P1;HPM_P2
2022/07/22 00:02:21;;;;;;;27.30;14.93;;;17.60;99.90;;;;;;5047496;28;20025;-73
2022/07/22 00:04:47;;;;;;;28.33;13.90;;;17.60;99.90;;;;;;5048958;28;20491;-68
2022/07/22 00:07:12;;;;;;;29.52;18.17;;;17.60;99.90;;;;;;5048085;28;20025;-68
2022/07/22 00:09:38;;;;;;;25.95;15.32;;;17.60;99.90;;;;;;5049161;28;20096;-70
2022/07/22 00:12:04;;;;;;;26.80;14.68;;;17.60;99.90;;;;;;5047880;28;20009;-69
2022/07/22 00:14:30;;;;;;;24.05;14.25;;;17.60;99.90;;;;;;5049914;28;20025;-69
2022/07/22 00:16:55;;;;;;;23.13;12.40;;;17.60;99.90;;;;;;5046575;28;20021;-68
2022/07/22 00:19:21;;;;;;;30.40;14.32;;;17.60;99.90;;;;;;5049937;28;20024;-68
2022/07/22 00:21:47;;;;;;;28.55;12.32;;;17.60;99.90;;;;;;5047949;28;20055;-68
2022/07/22 00:24:13;;;;;;;22.10;11.25;;;17.60;99.90;;;;;;5050114;28;20449;-68
2022/07/22 00:26:38;;;;;;;20.40;10.90;;;17.60;99.90;;;;;;5047638;28;20025;-68
2022/07/22 00:29:04;;;;;;;24.58;10.85;;;17.60;99.90;;;;;;5049304;28;20114;-68
2022/07/22 00:31:30;;;;;;;19.58;10.13;;;17.60;99.90;;;;;;5048456;28;20024;-69
2022/07/22 00:33:56;;;;;;;23.63;9.15;;;17.50;99.90;;;;;;5043667;28;20094;-68
2022/07/22 00:36:22;;;;;;;21.80;9.55;;;17.50;99.90;;;;;;5046605;28;20059;-69
2022/07/22 00:38:47;;;;;;;21.38;9.50;;;17.50;99.90;;;;;;5048460;28;20059;-69
2022/07/22 00:41:13;;;;;;;17.75;8.23;;;17.50;99.90;;;;;;5048106;28;20029;-73
2022/07/22 00:43:55;;;;;;;13.40;8.93;;;17.50;99.90;;;;;;5047013;28;20017;-68
2022/07/22 00:46:20;;;;;;;16.15;7.90;;;17.50;99.90;;;;;;5048131;28;20033;-67
2022/07/22 00:48:46;;;;;;;15.45;8.07;;;17.50;99.90;;;;;;5045940;28;20029;-70
2022/07/22 00:51:12;;;;;;;21.02;9.18;;;17.50;99.90;;;;;;5048453;28;20068;-68
2022/07/22 00:53:38;;;;;;;22.23;9.90;;;17.40;99.90;;;;;;5049097;28;20025;-68
2022/07/22 00:56:04;;;;;;;17.65;8.63;;;17.40;99.90;;;;;;5047008;28;20029;-69
2022/07/22 00:58:29;;;;;;;12.05;7.40;;;17.50;99.90;;;;;;5048362;28;20029;-69
2022/07/22 01:00:55;;;;;;;14.90;7.60;;;17.40;99.90;;;;;;5047410;28;20060;-67
2022/07/22 01:03:21;;;;;;;18.95;8.57;;;17.40;99.90;;;;;;5047761;28;20029;-68
2022/07/22 01:05:46;;;;;;;15.93;7.57;;;17.40;99.90;;;;;;5048513;28;20095;-68
2022/07/22 01:08:12;;;;;;;22.70;8.07;;;17.30;99.90;;;;;;5047858;28;20033;-68
2022/07/22 01:10:37;;;;;;;15.35;7.63;;;17.40;99.90;;;;;;5046973;28;20537;-70
2022/07/22 01:13:03;;;;;;;15.30;7.00;;;17.40;99.90;;;;;;5048580;28;20033;-68
2022/07/22 01:15:29;;;;;;;20.60;8.85;;;17.40;99.90;;;;;;5046878;28;20025;-72
2022/07/22 01:17:54;;;;;;;18.25;8.88;;;17.40;99.90;;;;;;5049485;28;20048;-69
2022/07/22 01:20:20;;;;;;;16.65;7.93;;;17.40;99.90;;;;;;5051805;28;20033;-67
2022/07/22 01:22:45;;;;;;;26.48;9.43;;;17.30;99.90;;;;;;5052180;28;20108;-68
2022/07/22 01:25:11;;;;;;;27.02;8.70;;;17.30;99.90;;;;;;5047617;28;20083;-69
2022/07/22 01:27:37;;;;;;;14.73;8.13;;;17.30;99.90;;;;;;5050565;28;20033;-70
2022/07/22 01:30:04;;;;;;;15.20;8.73;;;17.30;99.90;;;;;;5051364;28;20044;-69
2022/07/22 01:32:30;;;;;;;14.50;9.25;;;17.30;99.90;;;;;;5049696;28;20192;-68
2022/07/22 01:34:55;;;;;;;19.52;8.68;;;17.30;99.90;;;;;;5049641;28;20457;-69
2022/07/22 01:37:21;;;;;;;21.73;9.60;;;17.30;99.90;;;;;;5048575;28;20539;-67
2022/07/22 01:39:48;;;;;;;17.17;7.90;;;17.30;99.90;;;;;;5051461;28;20116;-68
2022/07/22 01:42:14;;;;;;;23.52;10.55;;;17.30;99.90;;;;;;5052121;28;20029;-70
2022/07/22 01:44:40;;;;;;;23.38;9.43;;;17.30;99.90;;;;;;5050539;28;20091;-68
2022/07/22 01:47:05;;;;;;;23.85;10.60;;;17.30;99.90;;;;;;5055674;28;20036;-71
2022/07/22 01:49:31;;;;;;;21.38;9.75;;;17.30;99.90;;;;;;5047822;28;20037;-70
2022/07/22 01:51:57;;;;;;;21.10;9.80;;;17.30;99.90;;;;;;5049246;28;20087;-68
2022/07/22 01:54:22;;;;;;;18.63;10.70;;;17.30;99.90;;;;;;5052073;28;20430;-68
2022/07/22 01:56:48;;;;;;;18.50;10.77;;;17.30;99.90;;;;;;5049289;28;20078;-68
2022/07/22 01:59:13;;;;;;;22.60;11.63;;;17.20;99.90;;;;;;5050351;28;20040;-68
2022/07/22 02:01:39;;;;;;;18.88;10.32;;;17.20;99.90;;;;;;5049527;28;20036;-70
2022/07/22 02:04:05;;;;;;;23.83;10.88;;;17.20;99.90;;;;;;5048985;28;20033;-67
2022/07/22 02:06:31;;;;;;;23.75;10.20;;;17.20;99.90;;;;;;5050272;28;20399;-68
2022/07/22 02:08:56;;;;;;;26.08;11.95;;;17.20;99.90;;;;;;5048981;28;20033;-68
2022/07/22 02:11:22;;;;;;;23.52;10.60;;;17.20;99.90;;;;;;5051787;28;20036;-68
2022/07/22 02:13:47;;;;;;;18.90;10.93;;;17.20;99.90;;;;;;5049818;28;20040;-69
2022/07/22 02:16:13;;;;;;;22.38;10.90;;;17.10;99.90;;;;;;5051456;28;20592;-68
2022/07/22 02:18:39;;;;;;;25.17;10.70;;;17.20;99.90;;;;;;5048970;28;20563;-68
2022/07/22 02:21:04;;;;;;;20.98;10.65;;;17.20;99.90;;;;;;5050300;28;20037;-71
2022/07/22 02:23:30;;;;;;;17.13;10.90;;;17.10;99.90;;;;;;5043936;28;20549;-68
2022/07/22 02:25:56;;;;;;;26.55;11.48;;;17.10;99.90;;;;;;5051357;28;20489;-70
2022/07/22 02:28:21;;;;;;;18.02;10.82;;;17.10;99.90;;;;;;5041919;28;20029;-69
2022/07/22 02:30:47;;;;;;;19.95;10.05;;;17.20;99.90;;;;;;5051105;28;20036;-69
2022/07/22 02:33:12;;;;;;;31.05;13.25;;;17.20;99.90;;;;;;5049881;28;20032;-68
2022/07/22 02:35:38;;;;;;;19.35;10.18;;;17.20;99.90;;;;;;5050865;28;20110;-68
2022/07/22 02:38:04;;;;;;;19.50;9.00;;;17.10;99.90;;;;;;5050755;28;20032;-68
2022/07/22 02:40:30;;;;;;;22.40;9.98;;;17.20;99.90;;;;;;5049048;28;20033;-68
2022/07/22 02:42:55;;;;;;;26.88;10.60;;;17.20;99.90;;;;;;5050169;28;20070;-68
2022/07/22 02:45:21;;;;;;;21.92;10.35;;;17.20;99.90;;;;;;5050118;28;20033;-69
2022/07/22 02:47:52;;;;;;;18.58;10.35;;;17.20;99.90;;;;;;5049927;28;20072;-70
2022/07/22 02:50:17;;;;;;;19.27;9.23;;;17.20;99.90;;;;;;5049508;28;20064;-68
2022/07/22 02:52:43;;;;;;;20.30;10.27;;;17.20;99.90;;;;;;5046367;28;20075;-69
2022/07/22 02:55:09;;;;;;;25.10;10.40;;;17.20;99.90;;;;;;5049535;28;20554;-69
2022/07/22 02:57:35;;;;;;;17.05;10.15;;;17.20;99.90;;;;;;5045938;28;20026;-68
2022/07/22 03:00:00;;;;;;;26.35;10.52;;;17.20;99.90;;;;;;5069277;22;20053;-63
2022/07/22 03:02:26;;;;;;;18.77;10.27;;;17.20;99.90;;;;;;5027179;28;20033;-63
2022/07/22 03:04:51;;;;;;;25.38;10.98;;;17.20;99.90;;;;;;5027677;28;20036;-62
2022/07/22 03:07:17;;;;;;;22.00;10.60;;;17.10;99.90;;;;;;5031411;28;20470;-62
2022/07/22 03:09:45;;;;;;;17.38;9.75;;;17.10;99.90;;;;;;5029003;28;20033;-62
2022/07/22 03:12:10;;;;;;;19.42;9.57;;;17.10;99.90;;;;;;5029222;28;20075;-65
2022/07/22 03:14:36;;;;;;;20.30;9.32;;;17.10;99.90;;;;;;5029861;28;20033;-65
2022/07/22 03:17:01;;;;;;;23.05;10.07;;;17.10;99.90;;;;;;5028610;28;20028;-62
2022/07/22 03:19:27;;;;;;;21.98;9.30;;;17.10;99.90;;;;;;5028688;28;21665;-62
2022/07/22 03:21:52;;;;;;;16.77;9.55;;;17.10;99.90;;;;;;5030498;28;20037;-62
2022/07/22 03:24:18;;;;;;;26.05;10.23;;;17.10;99.90;;;;;;5030069;28;20087;-62
2022/07/22 03:26:43;;;;;;;20.38;9.98;;;17.20;99.90;;;;;;5026372;28;20037;-62
2022/07/22 03:29:09;;;;;;;22.92;9.77;;;17.20;99.90;;;;;;5028811;28;20488;-64
2022/07/22 03:31:34;;;;;;;22.88;11.27;;;17.20;99.90;;;;;;5030078;28;20041;-64
2022/07/22 03:34:00;;;;;;;17.65;10.38;;;17.10;99.90;;;;;;5029123;28;20026;-63
2022/07/22 03:36:28;;;;;;;18.80;10.38;;;17.10;99.90;;;;;;5029317;28;20391;-64
2022/07/22 03:38:54;;;;;;;21.45;11.13;;;17.10;99.90;;;;;;5028601;28;20025;-64
2022/07/22 03:41:19;;;;;;;21.55;10.15;;;17.10;99.90;;;;;;5029481;28;20409;-62
2022/07/22 03:43:45;;;;;;;17.75;10.38;;;17.10;99.90;;;;;;5028973;28;20025;-63
2022/07/22 03:46:10;;;;;;;17.23;9.23;;;17.00;99.90;;;;;;5030425;28;20025;-64
2022/07/22 03:48:36;;;;;;;26.88;11.02;;;17.00;99.90;;;;;;5028225;28;20017;-61
2022/07/22 03:51:02;;;;;;;24.33;10.25;;;17.00;99.90;;;;;;5030143;28;20546;-65
2022/07/22 03:53:27;;;;;;;18.88;10.43;;;17.00;99.90;;;;;;5027797;28;20450;-64
2022/07/22 03:55:53;;;;;;;20.83;10.75;;;17.00;99.90;;;;;;5030158;28;20021;-64
2022/07/22 03:58:18;;;;;;;18.85;10.10;;;17.00;99.90;;;;;;5026696;28;20140;-64
2022/07/22 04:00:44;;;;;;;20.02;10.52;;;17.00;99.90;;;;;;5026730;28;20272;-65
2022/07/22 04:03:09;;;;;;;25.75;10.07;;;17.10;99.90;;;;;;5027983;28;20108;-65
2022/07/22 04:05:35;;;;;;;26.33;10.95;;;17.00;99.90;;;;;;5029226;28;20042;-64
2022/07/22 04:08:00;;;;;;;17.00;10.70;;;17.00;99.90;;;;;;5028130;28;20038;-65
2022/07/22 04:10:26;;;;;;;19.83;11.60;;;17.00;99.90;;;;;;5029102;28;20392;-65
2022/07/22 04:12:51;;;;;;;21.15;11.18;;;17.00;99.90;;;;;;5028532;28;20113;-64
2022/07/22 04:15:17;;;;;;;19.95;9.52;;;17.00;99.90;;;;;;5028449;28;20034;-64
2022/07/22 04:17:43;;;;;;;19.67;10.25;;;17.10;99.90;;;;;;5029241;28;20496;-64
2022/07/22 04:20:09;;;;;;;17.52;10.85;;;17.10;99.90;;;;;;5026998;28;20049;-64
2022/07/22 04:22:34;;;;;;;20.55;11.25;;;17.10;99.90;;;;;;5029044;28;20060;-64
2022/07/22 04:25:00;;;;;;;27.13;13.55;;;17.10;99.90;;;;;;5028454;28;20542;-63
2022/07/22 04:27:25;;;;;;;24.13;12.25;;;17.00;99.90;;;;;;5028262;28;20029;-63
2022/07/22 04:29:51;;;;;;;24.52;13.07;;;17.00;99.90;;;;;;5027490;28;20072;-63
2022/07/22 04:32:16;;;;;;;23.95;12.48;;;17.00;99.90;;;;;;5029169;28;20125;-64
2022/07/22 04:34:43;;;;;;;19.08;12.07;;;17.00;99.90;;;;;;5026830;28;20064;-64
2022/07/22 04:37:08;;;;;;;22.83;11.88;;;17.00;99.90;;;;;;5029379;28;20068;-64
2022/07/22 04:39:34;;;;;;;21.58;10.88;;;17.00;99.90;;;;;;5026725;28;20025;-64
2022/07/22 04:42:00;;;;;;;24.58;13.13;;;17.10;99.90;;;;;;5028708;28;20029;-64
2022/07/22 04:44:25;;;;;;;29.02;11.95;;;17.10;99.90;;;;;;5029099;28;20025;-64
2022/07/22 04:46:51;;;;;;;22.75;11.73;;;17.10;99.90;;;;;;5029079;28;20083;-64
2022/07/22 04:49:16;;;;;;;19.35;11.05;;;17.10;99.90;;;;;;5027908;28;20042;-64
2022/07/22 04:51:42;;;;;;;18.25;10.05;;;17.10;99.90;;;;;;5029880;28;20037;-64
2022/07/22 04:54:07;;;;;;;22.55;12.40;;;17.10;99.90;;;;;;5033725;28;20026;-64
2022/07/22 04:56:33;;;;;;;23.25;11.52;;;17.10;99.90;;;;;;5031030;28;20113;-64
2022/07/22 04:58:58;;;;;;;22.23;11.05;;;17.10;99.90;;;;;;5032498;28;20040;-64
2022/07/22 05:01:24;;;;;;;20.50;10.00;;;17.10;99.90;;;;;;5032406;28;20033;-62
2022/07/22 05:03:50;;;;;;;21.55;10.13;;;17.10;99.90;;;;;;5032094;28;20060;-64
2022/07/22 05:06:16;;;;;;;17.80;9.52;;;17.00;99.90;;;;;;5032661;28;20018;-64
2022/07/22 05:08:41;;;;;;;13.40;9.25;;;17.00;99.90;;;;;;5031393;28;20372;-64
2022/07/22 05:11:07;;;;;;;20.60;9.52;;;17.10;99.90;;;;;;5033350;28;20028;-64
2022/07/22 05:13:33;;;;;;;17.10;8.60;;;17.00;99.90;;;;;;5033097;28;20025;-64
2022/07/22 05:16:03;;;;;;;18.58;7.93;;;17.10;99.90;;;;;;5031428;28;20510;-64
2022/07/22 05:18:28;;;;;;;20.75;8.82;;;17.10;99.90;;;;;;5030095;28;20467;-64
2022/07/22 05:20:54;;;;;;;19.15;8.80;;;17.10;99.90;;;;;;5032325;28;20060;-64
2022/07/22 05:23:19;;;;;;;21.50;9.55;;;17.10;99.90;;;;;;5031231;28;20031;-64
2022/07/22 05:25:45;;;;;;;16.83;8.85;;;17.20;99.90;;;;;;5032083;28;20029;-65
2022/07/22 05:28:11;;;;;;;18.52;9.05;;;17.10;99.90;;;;;;5029446;28;20512;-64
2022/07/22 05:30:36;;;;;;;18.08;9.05;;;17.10;99.90;;;;;;5031567;28;20067;-63
2022/07/22 05:33:02;;;;;;;18.63;10.25;;;17.10;99.90;;;;;;5036031;28;20438;-64
2022/07/22 05:35:27;;;;;;;17.10;11.45;;;17.10;99.90;;;;;;5031666;28;20025;-64
2022/07/22 05:37:53;;;;;;;20.98;11.00;;;17.10;99.90;;;;;;5031460;28;20104;-64
2022/07/22 05:40:18;;;;;;;31.98;13.50;;;17.10;99.90;;;;;;5030837;28;20033;-64
2022/07/22 05:42:44;;;;;;;20.88;11.13;;;17.10;99.90;;;;;;5031810;28;20108;-65
2022/07/22 05:45:10;;;;;;;21.30;12.93;;;17.00;99.90;;;;;;5032645;28;20025;-64
2022/07/22 05:47:35;;;;;;;33.00;13.88;;;17.10;99.90;;;;;;5032416;28;20025;-64
2022/07/22 05:50:01;;;;;;;26.15;13.35;;;17.00;99.90;;;;;;5026486;28;20037;-64
2022/07/22 05:52:26;;;;;;;22.98;12.48;;;17.00;99.90;;;;;;5031202;28;20044;-63
2022/07/22 05:54:52;;;;;;;22.33;12.43;;;17.10;99.90;;;;;;5032310;28;20649;-64
2022/07/22 05:57:17;;;;;;;24.52;13.00;;;17.10;99.90;;;;;;5031160;28;20071;-64
2022/07/22 05:59:43;;;;;;;31.17;12.45;;;17.10;99.90;;;;;;5029554;28;20041;-64
2022/07/22 06:02:09;;;;;;;23.58;12.02;;;17.10;99.90;;;;;;5029971;28;20097;-64
2022/07/22 06:04:34;;;;;;;22.73;13.77;;;17.20;99.90;;;;;;5028192;28;20057;-63
2022/07/22 06:07:00;;;;;;;19.95;11.38;;;17.20;99.90;;;;;;5033785;28;20478;-64
2022/07/22 06:09:25;;;;;;;18.73;11.57;;;17.30;99.90;;;;;;5029812;28;20030;-63
2022/07/22 06:11:51;;;;;;;24.45;11.25;;;17.30;99.90;;;;;;5034861;28;20409;-64
2022/07/22 06:14:16;;;;;;;22.33;12.43;;;17.40;99.90;;;;;;5030791;28;20025;-63
2022/07/22 06:16:42;;;;;;;18.63;12.38;;;17.40;99.90;;;;;;5032287;28;20051;-64
2022/07/22 06:19:07;;;;;;;25.48;13.60;;;17.40;99.90;;;;;;5028727;28;20033;-63
2022/07/22 06:21:33;;;;;;;21.00;12.32;;;17.50;99.90;;;;;;5030575;28;20497;-64
2022/07/22 06:23:58;;;;;;;31.20;13.93;;;17.50;99.90;;;;;;5029743;28;20083;-64
2022/07/22 06:26:24;;;;;;;21.08;13.30;;;17.60;99.90;;;;;;5030446;28;20044;-64
2022/07/22 06:28:50;;;;;;;24.30;11.90;;;17.60;99.90;;;;;;5028518;28;20498;-61
2022/07/22 06:31:16;;;;;;;22.10;12.02;;;17.60;99.90;;;;;;5032247;28;20041;-64
2022/07/22 06:33:42;;;;;;;18.67;12.10;;;17.70;99.90;;;;;;5037446;28;20021;-63
2022/07/22 06:36:07;;;;;;;23.23;12.52;;;17.70;99.90;;;;;;5030542;28;20037;-63
2022/07/22 06:38:33;;;;;;;23.08;13.40;;;17.70;99.90;;;;;;5030302;28;20025;-62
2022/07/22 06:40:58;;;;;;;23.13;14.90;;;17.70;99.90;;;;;;5030723;28;20038;-63
2022/07/22 06:43:24;;;;;;;19.75;13.23;;;17.70;99.90;;;;;;5028927;28;20034;-63
2022/07/22 06:45:50;;;;;;;22.25;14.25;;;17.70;99.90;;;;;;5027036;28;20107;-63
2022/07/22 06:48:16;;;;;;;23.23;13.25;;;17.70;99.90;;;;;;5031088;28;20072;-63
2022/07/22 06:50:41;;;;;;;31.85;15.82;;;17.70;99.90;;;;;;5028569;28;20096;-64
2022/07/22 06:53:07;;;;;;;31.67;16.20;;;17.70;99.90;;;;;;5029141;28;20177;-63
2022/07/22 06:55:32;;;;;;;27.67;15.57;;;17.70;99.90;;;;;;5026511;28;20287;-62
2022/07/22 06:57:58;;;;;;;32.92;15.77;;;17.70;99.90;;;;;;5030121;28;20067;-64
2022/07/22 07:00:24;;;;;;;26.17;14.68;;;17.80;99.90;;;;;;5026654;28;20098;-63
2022/07/22 07:02:49;;;;;;;26.73;14.95;;;17.90;99.90;;;;;;5024051;28;20399;-62
2022/07/22 07:05:15;;;;;;;27.25;15.25;;;17.90;99.90;;;;;;5024013;28;20037;-64
2022/07/22 07:07:41;;;;;;;27.88;15.57;;;17.80;99.90;;;;;;5022926;28;20080;-63
2022/07/22 07:10:09;;;;;;;28.27;18.10;;;17.70;99.90;;;;;;5019195;28;20500;-63
2022/07/22 07:12:35;;;;;;;22.35;12.73;;;17.70;99.90;;;;;;5024927;28;20018;-62
2022/07/22 07:15:00;;;;;;;24.10;12.40;;;17.50;99.90;;;;;;5025711;28;20033;-63
2022/07/22 07:17:26;;;;;;;19.13;11.73;;;17.50;99.90;;;;;;5018464;28;20033;-63
2022/07/22 07:19:51;;;;;;;16.33;11.02;;;17.50;99.90;;;;;;5026853;28;20022;-63
2022/07/22 07:22:17;;;;;;;18.52;10.60;;;17.50;99.90;;;;;;5022466;28;20033;-64
2022/07/22 07:24:42;;;;;;;20.40;9.93;;;17.40;99.90;;;;;;5030367;28;20029;-64
2022/07/22 07:27:08;;;;;;;17.40;9.05;;;17.40;99.90;;;;;;5025801;28;20033;-63
2022/07/22 07:29:33;;;;;;;16.80;9.15;;;17.50;99.90;;;;;;5032215;28;20055;-63
2022/07/22 07:31:59;;;;;;;17.98;9.13;;;17.50;99.90;;;;;;5026446;28;20025;-63
2022/07/22 07:34:25;;;;;;;13.98;8.45;;;17.50;99.90;;;;;;5023846;28;20030;-64
2022/07/22 07:36:50;;;;;;;14.25;7.82;;;17.60;99.90;;;;;;5025491;28;20033;-63
2022/07/22 07:39:16;;;;;;;13.45;7.85;;;17.60;99.90;;;;;;5028519;28;20100;-63
2022/07/22 07:41:41;;;;;;;16.30;8.82;;;17.70;99.90;;;;;;5025514;28;20523;-63
2022/07/22 07:44:07;;;;;;;12.63;6.93;;;17.70;99.90;;;;;;5027512;28;20055;-63
2022/07/22 07:46:32;;;;;;;16.63;8.85;;;17.80;99.90;;;;;;5032286;28;20074;-61
2022/07/22 07:48:58;;;;;;;20.95;7.68;;;17.80;99.90;;;;;;5032224;28;20517;-62
2022/07/22 07:51:23;;;;;;;15.30;7.45;;;17.80;99.90;;;;;;5030720;28;20029;-63
2022/07/22 07:53:50;;;;;;;15.38;8.13;;;17.90;99.90;;;;;;5028094;28;20032;-63
2022/07/22 07:56:16;;;;;;;16.20;7.28;;;17.90;99.90;;;;;;5028991;28;20398;-63
2022/07/22 07:58:41;;;;;;;15.27;8.38;;;17.90;99.90;;;;;;5021883;28;20068;-63
2022/07/22 08:01:07;;;;;;;13.73;7.65;;;18.00;99.90;;;;;;5026256;28;20487;-63
2022/07/22 08:03:33;;;;;;;10.55;7.38;;;18.00;99.90;;;;;;5029630;28;20021;-63
2022/07/22 08:05:59;;;;;;;15.00;7.20;;;18.00;99.90;;;;;;5025760;28;20041;-63
2022/07/22 08:08:25;;;;;;;16.27;8.32;;;18.10;99.90;;;;;;5028825;28;20118;-64
2022/07/22 08:10:51;;;;;;;18.10;8.40;;;18.10;99.90;;;;;;5027402;28;20546;-63
2022/07/22 08:13:16;;;;;;;15.95;8.77;;;18.10;99.90;;;;;;5027773;28;20029;-63
2022/07/22 08:15:42;;;;;;;11.38;7.85;;;18.10;99.90;;;;;;5026261;28;20034;-63
2022/07/22 08:18:08;;;;;;;20.75;9.75;;;18.20;99.90;;;;;;5025351;28;20033;-63
2022/07/22 08:20:33;;;;;;;23.17;9.63;;;18.20;99.90;;;;;;5025975;28;20032;-64
2022/07/22 08:22:59;;;;;;;13.43;9.02;;;18.30;99.90;;;;;;5027412;28;20029;-64
2022/07/22 08:25:25;;;;;;;17.55;8.95;;;18.30;99.90;;;;;;5026784;28;20030;-62
2022/07/22 08:27:51;;;;;;;15.52;9.05;;;18.40;99.90;;;;;;5025336;28;20083;-62
2022/07/22 08:30:17;;;;;;;14.85;8.13;;;18.30;99.90;;;;;;5025797;28;20025;-63
2022/07/22 08:32:43;;;;;;;14.65;7.72;;;18.30;99.90;;;;;;5027307;28;20033;-63
2022/07/22 08:35:09;;;;;;;9.88;6.68;;;18.40;99.90;;;;;;5026697;28;20132;-62
2022/07/22 08:37:34;;;;;;;18.35;8.65;;;18.40;99.90;;;;;;5027428;28;20049;-63
2022/07/22 08:40:00;;;;;;;12.57;7.57;;;18.40;99.90;;;;;;5025798;28;20029;-64
2022/07/22 08:42:26;;;;;;;19.90;8.98;;;18.50;99.90;;;;;;5035404;28;20030;-64
2022/07/22 08:44:55;;;;;;;12.32;7.53;;;18.60;99.90;;;;;;5020479;28;20044;-63
2022/07/22 08:47:23;;;;;;;13.30;7.43;;;18.70;99.90;;;;;;5019450;28;20091;-63
2022/07/22 08:49:49;;;;;;;16.58;7.88;;;18.80;99.90;;;;;;5026394;28;20030;-63
2022/07/22 08:52:15;;;;;;;20.88;8.98;;;18.90;99.90;;;;;;5026624;28;20018;-64
2022/07/22 08:54:41;;;;;;;14.02;8.90;;;19.00;99.90;;;;;;5023030;28;20041;-64
2022/07/22 08:57:07;;;;;;;15.40;9.68;;;19.00;99.90;;;;;;5024712;28;20164;-64
2022/07/22 08:59:33;;;;;;;14.15;9.05;;;19.30;99.90;;;;;;5028537;28;20486;-62
2022/07/22 09:02:09;;;;;;;12.82;8.30;;;19.30;99.90;;;;;;5035779;23;20264;-63
2022/07/22 09:04:59;;;;;;;16.98;8.18;;;19.30;99.90;;;;;;5005556;28;20053;-63
2022/07/22 09:07:37;;;;;;;18.77;9.07;;;19.40;99.90;;;;;;4998953;28;20034;-63
2022/07/22 09:10:16;;;;;;;17.67;8.07;;;19.40;99.90;;;;;;5000099;28;20034;-64
2022/07/22 09:12:59;;;;;;;15.85;8.57;;;19.40;99.90;;;;;;5003146;28;20022;-64
2022/07/22 09:15:30;;;;;;;17.85;8.93;;;19.60;99.90;;;;;;4985542;28;20057;-65
2022/07/22 09:17:56;;;;;;;17.15;8.43;;;19.60;99.90;;;;;;4989366;28;20022;-65
2022/07/22 09:20:22;;;;;;;16.25;9.05;;;19.70;99.90;;;;;;4977437;28;20480;-65
2022/07/22 09:22:49;;;;;;;14.48;8.65;;;19.80;99.90;;;;;;4983508;28;20038;-64
2022/07/22 09:25:33;;;;;;;17.73;9.68;;;19.80;99.90;;;;;;4979010;28;20030;-63
2022/07/22 09:28:05;;;;;;;14.07;8.90;;;19.90;99.90;;;;;;4984809;28;20077;-64
2022/07/22 09:30:31;;;;;;;17.17;9.48;;;20.10;99.90;;;;;;4983125;28;20027;-63
2022/07/22 09:32:56;;;;;;;12.23;9.13;;;20.20;99.90;;;;;;4982999;28;20105;-64
2022/07/22 09:35:23;;;;;;;20.05;9.93;;;20.30;99.90;;;;;;4977780;28;20122;-64
2022/07/22 09:38:09;;;;;;;13.77;9.70;;;20.40;99.90;;;;;;4982748;28;20408;-64
2022/07/22 09:40:40;;;;;;;14.25;8.98;;;20.10;99.90;;;;;;4988149;28;20026;-65
2022/07/22 09:43:12;;;;;;;15.50;10.15;;;20.10;99.90;;;;;;4992727;28;20037;-64
2022/07/22 09:45:46;;;;;;;19.67;9.63;;;20.20;99.90;;;;;;4991738;28;20025;-66
2022/07/22 09:48:11;;;;;;;12.38;8.52;;;20.00;99.90;;;;;;4986062;28;20068;-65
2022/07/22 09:50:37;;;;;;;18.75;11.68;;;20.10;99.90;;;;;;4987784;28;20473;-63
2022/07/22 09:53:03;;;;;;;19.30;11.90;;;20.20;99.90;;;;;;4980957;28;20045;-63
2022/07/22 09:55:29;;;;;;;16.05;10.23;;;20.20;99.90;;;;;;4981928;28;20540;-65
2022/07/22 09:57:56;;;;;;;20.13;12.88;;;20.20;99.90;;;;;;4983616;28;20481;-65
2022/07/22 10:00:25;;;;;;;18.80;11.63;;;20.40;99.90;;;;;;4984677;28;20026;-63
2022/07/22 10:02:56;;;;;;;16.38;12.65;;;20.40;99.90;;;;;;4982270;28;20053;-65
2022/07/22 10:05:25;;;;;;;18.45;12.30;;;20.40;99.90;;;;;;4982712;28;20029;-66
2022/07/22 10:07:52;;;;;;;24.00;12.48;;;20.60;99.90;;;;;;4982024;28;20031;-66
2022/07/22 10:10:20;;;;;;;21.08;12.77;;;20.80;99.90;;;;;;4983791;28;20037;-66
2022/07/22 10:12:49;;;;;;;22.55;11.88;;;20.90;99.90;;;;;;4985330;28;20022;-65
2022/07/22 10:15:15;;;;;;;17.00;11.38;;;20.80;99.90;;;;;;4987349;28;20025;-66
2022/07/22 10:17:43;;;;;;;19.08;11.27;;;20.70;99.90;;;;;;4983521;28;20026;-66
2022/07/22 10:20:10;;;;;;;21.70;12.52;;;20.80;99.90;;;;;;4977498;28;20030;-64
2022/07/22 10:22:39;;;;;;;16.35;11.55;;;20.70;99.90;;;;;;4982585;28;20130;-65
2022/07/22 10:25:06;;;;;;;14.88;10.98;;;20.70;99.90;;;;;;4983768;28;20046;-65
2022/07/22 10:27:53;;;;;;;17.90;12.30;;;20.80;99.90;;;;;;4983578;28;20507;-64
2022/07/22 10:30:31;;;;;;;18.70;12.95;;;20.80;99.90;;;;;;4985769;28;20034;-65
2022/07/22 10:33:09;;;;;;;16.88;12.02;;;20.80;99.90;;;;;;4979736;28;20113;-65
2022/07/22 10:36:01;;;;;;;17.58;11.77;;;20.90;99.90;;;;;;4987583;28;20023;-65
2022/07/22 10:38:29;;;;;;;19.27;13.10;;;21.00;99.90;;;;;;4980893;28;20021;-65
2022/07/22 10:40:59;;;;;;;19.17;12.73;;;21.10;99.90;;;;;;4981939;28;20030;-65
2022/07/22 10:43:27;;;;;;;23.67;11.95;;;21.10;99.90;;;;;;4984063;28;20026;-66
2022/07/22 10:45:55;;;;;;;23.58;11.98;;;21.10;99.90;;;;;;4995638;28;20096;-64
2022/07/22 10:48:31;;;;;;;19.98;12.63;;;21.10;99.90;;;;;;4987608;28;20049;-65
2022/07/22 10:51:25;;;;;;;19.77;12.38;;;21.20;99.90;;;;;;4981642;28;20505;-66
2022/07/22 10:54:02;;;;;;;19.98;13.50;;;21.10;99.90;;;;;;4981604;28;20149;-66
2022/07/22 10:56:35;;;;;;;20.50;12.90;;;21.10;99.90;;;;;;4977864;28;20027;-65
2022/07/22 10:59:16;;;;;;;16.00;12.40;;;21.40;99.90;;;;;;4985657;28;20029;-64
2022/07/22 11:01:46;;;;;;;20.10;12.48;;;21.60;99.90;;;;;;4981144;28;20440;-65
2022/07/22 11:04:21;;;;;;;19.42;12.93;;;21.80;99.90;;;;;;4980268;28;20033;-65
2022/07/22 11:06:50;;;;;;;17.13;12.63;;;22.00;99.90;;;;;;4982678;28;20085;-66
2022/07/22 11:09:17;;;;;;;21.45;14.07;;;22.00;99.90;;;;;;4983588;28;20054;-64
2022/07/22 11:11:46;;;;;;;17.70;12.43;;;21.80;99.90;;;;;;4981338;28;20125;-64
2022/07/22 11:14:17;;;;;;;18.70;13.23;;;21.80;99.90;;;;;;4982706;28;20110;-65
2022/07/22 11:16:44;;;;;;;20.17;12.73;;;21.90;99.90;;;;;;4985705;28;20026;-64
2022/07/22 11:19:10;;;;;;;19.17;12.52;;;21.80;99.90;;;;;;4977998;28;20393;-63
2022/07/22 11:21:35;;;;;;;16.83;10.65;;;22.10;99.90;;;;;;4980844;28;20035;-65
2022/07/22 11:24:04;;;;;;;19.25;12.25;;;22.40;99.90;;;;;;4982351;28;20106;-64
2022/07/22 11:26:44;;;;;;;15.25;10.68;;;22.60;99.90;;;;;;4985766;28;20493;-66
2022/07/22 11:29:16;;;;;;;17.25;10.45;;;22.80;99.90;;;;;;4991623;28;20019;-65
2022/07/22 11:31:41;;;;;;;18.55;12.27;;;23.10;99.90;;;;;;4986859;28;20022;-64
2022/07/22 11:34:15;;;;;;;18.00;11.45;;;23.10;99.90;;;;;;4984672;28;20030;-65
2022/07/22 11:36:42;;;;;;;24.45;12.82;;;22.80;99.90;;;;;;4983221;28;20089;-66
2022/07/22 11:39:10;;;;;;;16.27;11.60;;;22.10;99.90;;;;;;4984098;28;20030;-66
2022/07/22 11:41:36;;;;;;;17.58;11.82;;;22.10;99.90;;;;;;4989479;28;20033;-65
2022/07/22 11:44:03;;;;;;;15.35;11.10;;;22.30;99.90;;;;;;4989929;28;20026;-65
2022/07/22 11:46:36;;;;;;;15.60;11.00;;;22.30;99.90;;;;;;4981421;28;20032;-66
2022/07/22 11:49:01;;;;;;;16.80;11.60;;;22.20;99.90;;;;;;4987149;28;20014;-65
2022/07/22 11:51:32;;;;;;;21.45;12.52;;;22.30;99.90;;;;;;4984482;28;20101;-66
2022/07/22 11:53:58;;;;;;;23.17;12.55;;;22.30;99.90;;;;;;4986297;28;20061;-66
2022/07/22 11:56:25;;;;;;;20.58;12.80;;;22.60;99.90;;;;;;4986905;28;20026;-65
2022/07/22 11:58:54;;;;;;;21.90;11.88;;;22.90;99.90;;;;;;4982891;28;20034;-65
2022/07/22 12:01:21;;;;;;;15.77;10.95;;;23.00;99.90;;;;;;4980829;28;20041;-66
2022/07/22 12:03:51;;;;;;;15.73;10.52;;;23.20;99.90;;;;;;4979919;28;20488;-65
2022/07/22 12:06:18;;;;;;;20.02;11.52;;;23.20;99.90;;;;;;4977777;28;20468;-65
2022/07/22 12:08:47;;;;;;;14.38;10.63;;;23.20;99.90;;;;;;4973349;28;20041;-65
2022/07/22 12:11:15;;;;;;;18.38;12.20;;;23.40;99.90;;;;;;4972346;28;20500;-66
2022/07/22 12:13:47;;;;;;;18.95;11.98;;;23.00;99.90;;;;;;4979715;28;20042;-66
2022/07/22 12:16:27;;;;;;;15.43;11.25;;;23.20;99.90;;;;;;4980503;28;20484;-64
2022/07/22 12:19:15;;;;;;;17.48;11.57;;;23.80;99.90;;;;;;4974881;28;20034;-64
2022/07/22 12:21:52;;;;;;;22.95;12.55;;;24.10;99.90;;;;;;4977729;28;20147;-64
2022/07/22 12:24:33;;;;;;;17.60;12.38;;;24.00;99.90;;;;;;4985644;28;20105;-65
2022/07/22 12:27:07;;;;;;;18.20;12.80;;;23.30;99.90;;;;;;4978268;28;20069;-63
2022/07/22 12:29:33;;;;;;;;;;;23.70;99.90;;;;;;4986642;28;20097;-63
2022/07/22 12:32:10;;;;;;;18.52;10.95;;;23.80;99.90;;;;;;4980890;28;19921;-63